sensor_id;sensor_type;location;lat;lon;timestamp;P1;durP1;ratioP1;P2;durP2;ratioP2
37355;SDS011;48747;50.250;18.848;2023-03-23T00:01:19;48.92;;;27.32;;
37355;SDS011;48747;50.250;18.848;2023-03-23T00:03:25;53.58;;;28.42;;
37355;SDS011;48747;50.250;18.848;2023-03-23T00:05:30;53.63;;;29.60;;
37355;SDS011;48747;50.250;18.848;2023-03-23T00:07:38;45.67;;;25.48;;
37355;SDS011;48747;50.250;18.848;2023-03-23T00:09:42;45.05;;;24.12;;
37355;SDS011;48747;50.250;18.848;2023-03-23T00:11:50;44.45;;;25.68;;
37355;SDS011;48747;50.250;18.848;2023-03-23T00:13:51;43.00;;;25.20;;
37355;SDS011;48747;50.250;18.848;2023-03-23T00:15:55;45.55;;;26.37;;
37355;SDS011;48747;50.250;18.848;2023-03-23T00:18:03;42.67;;;23.00;;
37355;SDS011;48747;50.250;18.848;2023-03-23T00:20:05;46.75;;;25.77;;
37355;SDS011;48747;50.250;18.848;2023-03-23T00:22:10;44.00;;;23.05;;
37355;SDS011;48747;50.250;18.848;2023-03-23T00:24:19;46.77;;;25.02;;
37355;SDS011;48747;50.250;18.848;2023-03-23T00:26:21;37.15;;;20.72;;
37355;SDS011;48747;50.250;18.848;2023-03-23T00:28:27;34.05;;;19.60;;
37355;SDS011;48747;50.250;18.848;2023-03-23T00:30:32;37.30;;;19.87;;
37355;SDS011;48747;50.250;18.848;2023-03-23T00:32:45;32.25;;;19.50;;
37355;SDS011;48747;50.250;18.848;2023-03-23T00:34:59;34.03;;;18.77;;
37355;SDS011;48747;50.250;18.848;2023-03-23T00:36:51;35.25;;;18.95;;
37355;SDS011;48747;50.250;18.848;2023-03-23T00:38:57;34.00;;;19.90;;
37355;SDS011;48747;50.250;18.848;2023-03-23T00:41:02;35.40;;;18.25;;
37355;SDS011;48747;50.250;18.848;2023-03-23T00:43:05;35.43;;;19.00;;
37355;SDS011;48747;50.250;18.848;2023-03-23T00:45:09;30.82;;;18.82;;
37355;SDS011;48747;50.250;18.848;2023-03-23T00:47:13;32.93;;;19.35;;
37355;SDS011;48747;50.250;18.848;2023-03-23T00:49:19;38.90;;;20.23;;
37355;SDS011;48747;50.250;18.848;2023-03-23T00:51:30;38.42;;;21.48;;
37355;SDS011;48747;50.250;18.848;2023-03-23T00:53:33;34.80;;;19.17;;
37355;SDS011;48747;50.250;18.848;2023-03-23T00:55:40;33.88;;;18.27;;
37355;SDS011;48747;50.250;18.848;2023-03-23T00:57:43;31.65;;;19.35;;
37355;SDS011;48747;50.250;18.848;2023-03-23T00:59:48;31.23;;;19.10;;
37355;SDS011;48747;50.250;18.848;2023-03-23T01:01:54;33.23;;;19.62;;
37355;SDS011;48747;50.250;18.848;2023-03-23T01:03:58;32.08;;;19.10;;
37355;SDS011;48747;50.250;18.848;2023-03-23T01:06:06;31.85;;;18.70;;
37355;SDS011;48747;50.250;18.848;2023-03-23T01:08:13;34.78;;;20.23;;
37355;SDS011;48747;50.250;18.848;2023-03-23T01:10:17;31.55;;;18.87;;
37355;SDS011;48747;50.250;18.848;2023-03-23T01:12:20;33.20;;;19.15;;
37355;SDS011;48747;50.250;18.848;2023-03-23T01:14:25;31.42;;;18.27;;
37355;SDS011;48747;50.250;18.848;2023-03-23T01:16:37;31.25;;;18.67;;
37355;SDS011;48747;50.250;18.848;2023-03-23T01:18:44;33.65;;;20.00;;
37355;SDS011;48747;50.250;18.848;2023-03-23T01:20:50;38.92;;;23.10;;
37355;SDS011;48747;50.250;18.848;2023-03-23T01:41:43;31.50;;;20.80;;
37355;SDS011;48747;50.250;18.848;2023-03-23T01:43:56;35.75;;;20.97;;
37355;SDS011;48747;50.250;18.848;2023-03-23T01:46:02;38.60;;;20.68;;
37355;SDS011;48747;50.250;18.848;2023-03-23T02:10:17;26.77;;;17.50;;
37355;SDS011;48747;50.250;18.848;2023-03-23T02:12:21;28.23;;;17.57;;
37355;SDS011;48747;50.250;18.848;2023-03-23T02:14:25;27.15;;;16.70;;
37355;SDS011;48747;50.250;18.848;2023-03-23T02:16:48;31.62;;;16.42;;
37355;SDS011;48747;50.250;18.848;2023-03-23T02:27:08;24.43;;;14.68;;
37355;SDS011;48747;50.250;18.848;2023-03-23T02:28:46;29.57;;;15.15;;
37355;SDS011;48747;50.250;18.848;2023-03-23T02:35:30;22.07;;;14.43;;
37355;SDS011;48747;50.250;18.848;2023-03-23T02:37:56;29.42;;;15.58;;
37355;SDS011;48747;50.250;18.848;2023-03-23T02:40:04;25.48;;;13.75;;
37355;SDS011;48747;50.250;18.848;2023-03-23T02:42:15;23.67;;;14.23;;
37355;SDS011;48747;50.250;18.848;2023-03-23T02:44:21;28.55;;;15.10;;
37355;SDS011;48747;50.250;18.848;2023-03-23T02:46:28;29.48;;;15.45;;
37355;SDS011;48747;50.250;18.848;2023-03-23T02:48:32;32.55;;;17.80;;
37355;SDS011;48747;50.250;18.848;2023-03-23T02:50:36;35.45;;;20.77;;
37355;SDS011;48747;50.250;18.848;2023-03-23T02:52:41;31.17;;;18.17;;
37355;SDS011;48747;50.250;18.848;2023-03-23T02:54:47;27.35;;;15.63;;
37355;SDS011;48747;50.250;18.848;2023-03-23T02:56:55;23.42;;;15.18;;
37355;SDS011;48747;50.250;18.848;2023-03-23T02:58:59;22.67;;;15.00;;
37355;SDS011;48747;50.250;18.848;2023-03-23T03:01:44;23.75;;;13.48;;
37355;SDS011;48747;50.250;18.848;2023-03-23T03:03:30;24.45;;;14.53;;
37355;SDS011;48747;50.250;18.848;2023-03-23T03:10:06;22.90;;;12.88;;
37355;SDS011;48747;50.250;18.848;2023-03-23T03:12:22;27.27;;;14.23;;
37355;SDS011;48747;50.250;18.848;2023-03-23T03:14:29;18.42;;;12.60;;
37355;SDS011;48747;50.250;18.848;2023-03-23T03:16:53;19.42;;;12.78;;
37355;SDS011;48747;50.250;18.848;2023-03-23T03:19:25;22.80;;;12.88;;
37355;SDS011;48747;50.250;18.848;2023-03-23T03:21:30;18.20;;;12.37;;
37355;SDS011;48747;50.250;18.848;2023-03-23T03:23:37;20.37;;;12.30;;
37355;SDS011;48747;50.250;18.848;2023-03-23T03:25:45;20.72;;;12.93;;
37355;SDS011;48747;50.250;18.848;2023-03-23T03:27:50;19.70;;;12.68;;
37355;SDS011;48747;50.250;18.848;2023-03-23T03:29:55;23.25;;;12.95;;
37355;SDS011;48747;50.250;18.848;2023-03-23T03:32:00;20.25;;;12.03;;
37355;SDS011;48747;50.250;18.848;2023-03-23T03:34:07;19.80;;;11.88;;
37355;SDS011;48747;50.250;18.848;2023-03-23T03:36:16;20.30;;;12.63;;
37355;SDS011;48747;50.250;18.848;2023-03-23T03:40:27;25.72;;;13.98;;
37355;SDS011;48747;50.250;18.848;2023-03-23T03:42:33;27.02;;;14.35;;
37355;SDS011;48747;50.250;18.848;2023-03-23T03:44:37;35.63;;;16.32;;
37355;SDS011;48747;50.250;18.848;2023-03-23T03:46:40;24.60;;;14.80;;
37355;SDS011;48747;50.250;18.848;2023-03-23T03:48:46;20.23;;;13.72;;
37355;SDS011;48747;50.250;18.848;2023-03-23T03:50:51;25.25;;;14.47;;
37355;SDS011;48747;50.250;18.848;2023-03-23T03:52:56;21.37;;;12.55;;
37355;SDS011;48747;50.250;18.848;2023-03-23T03:54:59;21.93;;;13.15;;
37355;SDS011;48747;50.250;18.848;2023-03-23T03:57:04;22.55;;;12.82;;
37355;SDS011;48747;50.250;18.848;2023-03-23T03:59:08;20.88;;;14.28;;
37355;SDS011;48747;50.250;18.848;2023-03-23T04:01:12;19.32;;;13.03;;
37355;SDS011;48747;50.250;18.848;2023-03-23T04:03:16;25.20;;;14.33;;
37355;SDS011;48747;50.250;18.848;2023-03-23T04:05:19;24.57;;;14.33;;
37355;SDS011;48747;50.250;18.848;2023-03-23T04:07:28;26.00;;;17.12;;
37355;SDS011;48747;50.250;18.848;2023-03-23T04:09:30;28.25;;;17.12;;
37355;SDS011;48747;50.250;18.848;2023-03-23T04:11:33;25.12;;;16.85;;
37355;SDS011;48747;50.250;18.848;2023-03-23T04:13:38;25.88;;;16.50;;
37355;SDS011;48747;50.250;18.848;2023-03-23T04:15:42;26.27;;;16.93;;
37355;SDS011;48747;50.250;18.848;2023-03-23T04:17:46;25.48;;;17.32;;
37355;SDS011;48747;50.250;18.848;2023-03-23T04:19:49;28.87;;;17.00;;
37355;SDS011;48747;50.250;18.848;2023-03-23T04:21:54;29.32;;;18.57;;
37355;SDS011;48747;50.250;18.848;2023-03-23T04:24:02;30.97;;;18.98;;
37355;SDS011;48747;50.250;18.848;2023-03-23T04:26:04;29.35;;;18.67;;
37355;SDS011;48747;50.250;18.848;2023-03-23T04:28:09;31.37;;;19.37;;
37355;SDS011;48747;50.250;18.848;2023-03-23T04:30:12;28.32;;;18.57;;
37355;SDS011;48747;50.250;18.848;2023-03-23T04:32:15;31.40;;;18.77;;
37355;SDS011;48747;50.250;18.848;2023-03-23T04:34:22;30.65;;;19.12;;
37355;SDS011;48747;50.250;18.848;2023-03-23T04:36:27;27.95;;;18.27;;
37355;SDS011;48747;50.250;18.848;2023-03-23T04:38:32;27.77;;;17.52;;
37355;SDS011;48747;50.250;18.848;2023-03-23T04:40:39;27.27;;;16.80;;
37355;SDS011;48747;50.250;18.848;2023-03-23T04:42:44;26.30;;;15.18;;
37355;SDS011;48747;50.250;18.848;2023-03-23T04:44:47;27.13;;;15.60;;
37355;SDS011;48747;50.250;18.848;2023-03-23T04:46:55;25.35;;;15.93;;
37355;SDS011;48747;50.250;18.848;2023-03-23T04:48:58;32.42;;;19.12;;
37355;SDS011;48747;50.250;18.848;2023-03-23T04:51:03;26.50;;;17.27;;
37355;SDS011;48747;50.250;18.848;2023-03-23T04:53:06;27.70;;;17.23;;
37355;SDS011;48747;50.250;18.848;2023-03-23T04:55:11;25.10;;;17.07;;
37355;SDS011;48747;50.250;18.848;2023-03-23T04:57:14;27.32;;;18.70;;
37355;SDS011;48747;50.250;18.848;2023-03-23T04:59:17;24.55;;;17.35;;
37355;SDS011;48747;50.250;18.848;2023-03-23T05:01:22;26.93;;;18.37;;
37355;SDS011;48747;50.250;18.848;2023-03-23T05:03:27;29.65;;;18.98;;
37355;SDS011;48747;50.250;18.848;2023-03-23T05:05:30;33.10;;;20.62;;
37355;SDS011;48747;50.250;18.848;2023-03-23T05:07:36;33.55;;;20.30;;
37355;SDS011;48747;50.250;18.848;2023-03-23T05:09:40;29.82;;;19.07;;
37355;SDS011;48747;50.250;18.848;2023-03-23T05:11:44;28.60;;;17.90;;
37355;SDS011;48747;50.250;18.848;2023-03-23T05:13:47;25.20;;;16.35;;
37355;SDS011;48747;50.250;18.848;2023-03-23T05:15:50;25.08;;;15.00;;
37355;SDS011;48747;50.250;18.848;2023-03-23T05:17:53;23.75;;;13.13;;
37355;SDS011;48747;50.250;18.848;2023-03-23T05:19:57;22.67;;;12.95;;
37355;SDS011;48747;50.250;18.848;2023-03-23T05:22:02;23.32;;;12.98;;
37355;SDS011;48747;50.250;18.848;2023-03-23T05:24:06;21.40;;;12.82;;
37355;SDS011;48747;50.250;18.848;2023-03-23T05:26:09;29.32;;;17.05;;
37355;SDS011;48747;50.250;18.848;2023-03-23T05:28:12;39.35;;;19.07;;
37355;SDS011;48747;50.250;18.848;2023-03-23T05:30:16;40.75;;;22.27;;
37355;SDS011;48747;50.250;18.848;2023-03-23T05:32:19;46.02;;;24.60;;
37355;SDS011;48747;50.250;18.848;2023-03-23T05:34:24;42.25;;;23.95;;
37355;SDS011;48747;50.250;18.848;2023-03-23T05:36:28;42.40;;;24.82;;
37355;SDS011;48747;50.250;18.848;2023-03-23T05:38:31;40.30;;;21.87;;
37355;SDS011;48747;50.250;18.848;2023-03-23T05:40:34;26.75;;;16.97;;
37355;SDS011;48747;50.250;18.848;2023-03-23T05:42:39;20.97;;;12.82;;
37355;SDS011;48747;50.250;18.848;2023-03-23T05:44:43;19.07;;;12.18;;
37355;SDS011;48747;50.250;18.848;2023-03-23T05:46:46;18.42;;;11.63;;
37355;SDS011;48747;50.250;18.848;2023-03-23T05:48:50;18.48;;;11.30;;
37355;SDS011;48747;50.250;18.848;2023-03-23T05:50:55;20.68;;;11.43;;
37355;SDS011;48747;50.250;18.848;2023-03-23T05:53:07;18.60;;;11.30;;
37355;SDS011;48747;50.250;18.848;2023-03-23T05:55:09;20.17;;;13.22;;
37355;SDS011;48747;50.250;18.848;2023-03-23T05:57:15;25.15;;;15.10;;
37355;SDS011;48747;50.250;18.848;2023-03-23T05:59:18;28.15;;;16.25;;
37355;SDS011;48747;50.250;18.848;2023-03-23T06:01:21;27.82;;;15.78;;
37355;SDS011;48747;50.250;18.848;2023-03-23T06:03:26;26.37;;;15.90;;
37355;SDS011;48747;50.250;18.848;2023-03-23T06:05:31;21.85;;;13.48;;
37355;SDS011;48747;50.250;18.848;2023-03-23T06:07:34;26.93;;;14.10;;
37355;SDS011;48747;50.250;18.848;2023-03-23T06:09:39;22.65;;;12.20;;
37355;SDS011;48747;50.250;18.848;2023-03-23T06:11:44;20.55;;;11.88;;
37355;SDS011;48747;50.250;18.848;2023-03-23T06:13:49;20.65;;;11.70;;
37355;SDS011;48747;50.250;18.848;2023-03-23T06:15:56;18.75;;;11.28;;
37355;SDS011;48747;50.250;18.848;2023-03-23T06:18:02;23.50;;;12.28;;
37355;SDS011;48747;50.250;18.848;2023-03-23T06:20:06;19.73;;;12.05;;
37355;SDS011;48747;50.250;18.848;2023-03-23T06:22:12;21.75;;;12.20;;
37355;SDS011;48747;50.250;18.848;2023-03-23T06:24:17;21.85;;;12.33;;
37355;SDS011;48747;50.250;18.848;2023-03-23T06:26:23;20.30;;;12.10;;
37355;SDS011;48747;50.250;18.848;2023-03-23T06:28:28;24.43;;;13.22;;
37355;SDS011;48747;50.250;18.848;2023-03-23T06:30:32;18.98;;;11.95;;
37355;SDS011;48747;50.250;18.848;2023-03-23T06:32:35;20.45;;;12.23;;
37355;SDS011;48747;50.250;18.848;2023-03-23T06:34:39;20.68;;;11.33;;
37355;SDS011;48747;50.250;18.848;2023-03-23T06:36:44;16.93;;;10.82;;
37355;SDS011;48747;50.250;18.848;2023-03-23T06:38:48;21.37;;;10.85;;
37355;SDS011;48747;50.250;18.848;2023-03-23T06:40:56;18.67;;;11.20;;
37355;SDS011;48747;50.250;18.848;2023-03-23T06:42:57;16.80;;;11.08;;
37355;SDS011;48747;50.250;18.848;2023-03-23T06:45:05;17.23;;;10.15;;
37355;SDS011;48747;50.250;18.848;2023-03-23T06:47:11;18.20;;;10.30;;
37355;SDS011;48747;50.250;18.848;2023-03-23T06:49:14;19.35;;;10.45;;
37355;SDS011;48747;50.250;18.848;2023-03-23T06:51:19;21.87;;;10.50;;
37355;SDS011;48747;50.250;18.848;2023-03-23T06:53:22;17.92;;;9.60;;
37355;SDS011;48747;50.250;18.848;2023-03-23T06:55:28;16.93;;;9.35;;
37355;SDS011;48747;50.250;18.848;2023-03-23T06:57:30;17.57;;;9.50;;
37355;SDS011;48747;50.250;18.848;2023-03-23T06:59:33;19.85;;;8.90;;
37355;SDS011;48747;50.250;18.848;2023-03-23T07:01:37;15.05;;;8.68;;
37355;SDS011;48747;50.250;18.848;2023-03-23T07:03:40;17.20;;;9.00;;
37355;SDS011;48747;50.250;18.848;2023-03-23T07:05:45;16.70;;;8.15;;
37355;SDS011;48747;50.250;18.848;2023-03-23T07:07:49;20.20;;;8.33;;
37355;SDS011;48747;50.250;18.848;2023-03-23T07:09:53;15.23;;;8.05;;
37355;SDS011;48747;50.250;18.848;2023-03-23T07:11:57;14.93;;;8.50;;
37355;SDS011;48747;50.250;18.848;2023-03-23T07:14:03;13.20;;;7.85;;
37355;SDS011;48747;50.250;18.848;2023-03-23T07:16:06;14.80;;;7.83;;
37355;SDS011;48747;50.250;18.848;2023-03-23T07:18:11;14.28;;;8.08;;
37355;SDS011;48747;50.250;18.848;2023-03-23T07:20:14;17.67;;;8.18;;
37355;SDS011;48747;50.250;18.848;2023-03-23T07:22:18;15.23;;;8.28;;
37355;SDS011;48747;50.250;18.848;2023-03-23T07:24:22;16.20;;;8.00;;
37355;SDS011;48747;50.250;18.848;2023-03-23T07:26:26;12.65;;;7.47;;
37355;SDS011;48747;50.250;18.848;2023-03-23T07:28:29;15.43;;;8.28;;
37355;SDS011;48747;50.250;18.848;2023-03-23T07:30:33;12.43;;;8.18;;
37355;SDS011;48747;50.250;18.848;2023-03-23T07:32:36;20.02;;;8.58;;
37355;SDS011;48747;50.250;18.848;2023-03-23T07:34:39;15.93;;;8.33;;
37355;SDS011;48747;50.250;18.848;2023-03-23T07:36:42;16.25;;;7.85;;
37355;SDS011;48747;50.250;18.848;2023-03-23T07:38:47;15.28;;;8.13;;
37355;SDS011;48747;50.250;18.848;2023-03-23T07:40:51;13.58;;;8.15;;
37355;SDS011;48747;50.250;18.848;2023-03-23T07:42:55;14.15;;;7.92;;
37355;SDS011;48747;50.250;18.848;2023-03-23T07:44:59;13.95;;;8.25;;
37355;SDS011;48747;50.250;18.848;2023-03-23T07:47:02;13.75;;;8.48;;
37355;SDS011;48747;50.250;18.848;2023-03-23T07:49:05;16.15;;;9.10;;
37355;SDS011;48747;50.250;18.848;2023-03-23T07:51:09;14.43;;;8.53;;
37355;SDS011;48747;50.250;18.848;2023-03-23T07:53:12;16.65;;;8.08;;
37355;SDS011;48747;50.250;18.848;2023-03-23T07:55:17;17.60;;;8.73;;
37355;SDS011;48747;50.250;18.848;2023-03-23T07:57:20;16.75;;;9.30;;
37355;SDS011;48747;50.250;18.848;2023-03-23T07:59:23;18.40;;;8.60;;
37355;SDS011;48747;50.250;18.848;2023-03-23T08:01:27;12.98;;;8.63;;
37355;SDS011;48747;50.250;18.848;2023-03-23T08:03:30;13.98;;;7.95;;
37355;SDS011;48747;50.250;18.848;2023-03-23T08:05:33;16.00;;;8.50;;
37355;SDS011;48747;50.250;18.848;2023-03-23T08:07:38;11.78;;;7.90;;
37355;SDS011;48747;50.250;18.848;2023-03-23T08:09:42;11.33;;;7.92;;
37355;SDS011;48747;50.250;18.848;2023-03-23T08:11:45;14.20;;;8.40;;
37355;SDS011;48747;50.250;18.848;2023-03-23T08:13:49;14.03;;;7.10;;
37355;SDS011;48747;50.250;18.848;2023-03-23T08:15:52;14.40;;;8.10;;
37355;SDS011;48747;50.250;18.848;2023-03-23T08:17:55;11.00;;;6.92;;
37355;SDS011;48747;50.250;18.848;2023-03-23T08:20:02;20.20;;;8.03;;
37355;SDS011;48747;50.250;18.848;2023-03-23T08:22:09;16.40;;;7.53;;
37355;SDS011;48747;50.250;18.848;2023-03-23T08:24:13;11.43;;;6.78;;
37355;SDS011;48747;50.250;18.848;2023-03-23T08:26:16;14.98;;;7.05;;
37355;SDS011;48747;50.250;18.848;2023-03-23T08:28:19;13.28;;;7.33;;
37355;SDS011;48747;50.250;18.848;2023-03-23T08:30:22;11.15;;;7.25;;
37355;SDS011;48747;50.250;18.848;2023-03-23T08:32:29;12.50;;;6.67;;
37355;SDS011;48747;50.250;18.848;2023-03-23T08:34:32;13.08;;;7.00;;
37355;SDS011;48747;50.250;18.848;2023-03-23T08:36:35;13.15;;;7.53;;
37355;SDS011;48747;50.250;18.848;2023-03-23T08:38:39;10.88;;;6.70;;
37355;SDS011;48747;50.250;18.848;2023-03-23T08:40:42;13.75;;;6.90;;
37355;SDS011;48747;50.250;18.848;2023-03-23T08:42:45;12.70;;;7.33;;
37355;SDS011;48747;50.250;18.848;2023-03-23T08:44:51;13.95;;;7.42;;
37355;SDS011;48747;50.250;18.848;2023-03-23T08:46:57;12.28;;;7.28;;
37355;SDS011;48747;50.250;18.848;2023-03-23T08:49:00;14.60;;;6.95;;
37355;SDS011;48747;50.250;18.848;2023-03-23T08:51:04;15.45;;;7.15;;
37355;SDS011;48747;50.250;18.848;2023-03-23T08:53:08;15.95;;;7.78;;
37355;SDS011;48747;50.250;18.848;2023-03-23T08:55:12;12.68;;;6.97;;
37355;SDS011;48747;50.250;18.848;2023-03-23T08:57:16;14.50;;;6.80;;
37355;SDS011;48747;50.250;18.848;2023-03-23T08:59:21;13.40;;;7.37;;
37355;SDS011;48747;50.250;18.848;2023-03-23T09:01:24;14.35;;;6.92;;
37355;SDS011;48747;50.250;18.848;2023-03-23T09:03:28;10.65;;;6.42;;
37355;SDS011;48747;50.250;18.848;2023-03-23T09:05:31;12.88;;;6.05;;
37355;SDS011;48747;50.250;18.848;2023-03-23T09:07:34;16.65;;;6.87;;
37355;SDS011;48747;50.250;18.848;2023-03-23T09:09:37;11.95;;;5.65;;
37355;SDS011;48747;50.250;18.848;2023-03-23T09:11:41;9.13;;;5.62;;
37355;SDS011;48747;50.250;18.848;2023-03-23T09:13:44;11.60;;;6.53;;
37355;SDS011;48747;50.250;18.848;2023-03-23T09:15:48;11.35;;;6.30;;
37355;SDS011;48747;50.250;18.848;2023-03-23T09:17:52;13.25;;;6.28;;
37355;SDS011;48747;50.250;18.848;2023-03-23T09:19:57;16.05;;;6.15;;
37355;SDS011;48747;50.250;18.848;2023-03-23T09:22:01;13.50;;;5.90;;
37355;SDS011;48747;50.250;18.848;2023-03-23T09:24:05;13.53;;;5.67;;
37355;SDS011;48747;50.250;18.848;2023-03-23T09:26:10;10.03;;;5.80;;
37355;SDS011;48747;50.250;18.848;2023-03-23T09:28:19;14.13;;;5.85;;
37355;SDS011;48747;50.250;18.848;2023-03-23T09:30:24;13.95;;;5.60;;
37355;SDS011;48747;50.250;18.848;2023-03-23T09:32:31;11.65;;;5.58;;
37355;SDS011;48747;50.250;18.848;2023-03-23T09:36:52;9.75;;;5.22;;
37355;SDS011;48747;50.250;18.848;2023-03-23T09:41:25;10.23;;;5.65;;
37355;SDS011;48747;50.250;18.848;2023-03-23T09:45:59;10.32;;;5.65;;
37355;SDS011;48747;50.250;18.848;2023-03-23T09:53:38;10.23;;;5.25;;
37355;SDS011;48747;50.250;18.848;2023-03-23T09:55:43;14.20;;;5.08;;
37355;SDS011;48747;50.250;18.848;2023-03-23T10:00:29;10.05;;;5.17;;
37355;SDS011;48747;50.250;18.848;2023-03-23T10:06:56;10.05;;;6.55;;
37355;SDS011;48747;50.250;18.848;2023-03-23T10:09:02;11.10;;;6.08;;
37355;SDS011;48747;50.250;18.848;2023-03-23T10:11:12;13.08;;;6.37;;
37355;SDS011;48747;50.250;18.848;2023-03-23T10:13:31;13.62;;;5.75;;
37355;SDS011;48747;50.250;18.848;2023-03-23T10:15:36;11.97;;;6.10;;
37355;SDS011;48747;50.250;18.848;2023-03-23T10:20:09;11.48;;;5.92;;
37355;SDS011;48747;50.250;18.848;2023-03-23T10:22:18;11.22;;;5.53;;
37355;SDS011;48747;50.250;18.848;2023-03-23T10:24:45;8.63;;;4.72;;
37355;SDS011;48747;50.250;18.848;2023-03-23T10:27:02;9.23;;;4.67;;
37355;SDS011;48747;50.250;18.848;2023-03-23T10:29:19;7.05;;;4.53;;
37355;SDS011;48747;50.250;18.848;2023-03-23T10:31:24;8.83;;;4.75;;
37355;SDS011;48747;50.250;18.848;2023-03-23T10:33:32;9.23;;;4.75;;
37355;SDS011;48747;50.250;18.848;2023-03-23T10:35:56;9.53;;;5.03;;
37355;SDS011;48747;50.250;18.848;2023-03-23T10:37:58;12.28;;;4.87;;
37355;SDS011;48747;50.250;18.848;2023-03-23T10:40:03;11.40;;;4.83;;
37355;SDS011;48747;50.250;18.848;2023-03-23T10:42:09;13.03;;;4.33;;
37355;SDS011;48747;50.250;18.848;2023-03-23T10:44:19;11.75;;;4.60;;
37355;SDS011;48747;50.250;18.848;2023-03-23T10:46:43;6.10;;;4.08;;
37355;SDS011;48747;50.250;18.848;2023-03-23T10:48:46;11.53;;;4.65;;
37355;SDS011;48747;50.250;18.848;2023-03-23T10:50:54;6.25;;;3.52;;
37355;SDS011;48747;50.250;18.848;2023-03-23T10:52:58;7.53;;;3.70;;
37355;SDS011;48747;50.250;18.848;2023-03-23T10:57:20;8.35;;;4.12;;
37355;SDS011;48747;50.250;18.848;2023-03-23T10:59:29;6.80;;;3.75;;
37355;SDS011;48747;50.250;18.848;2023-03-23T11:01:34;8.88;;;4.33;;
37355;SDS011;48747;50.250;18.848;2023-03-23T11:03:41;9.68;;;4.00;;
37355;SDS011;48747;50.250;18.848;2023-03-23T11:08:11;12.30;;;5.42;;
37355;SDS011;48747;50.250;18.848;2023-03-23T11:10:26;16.07;;;8.03;;
37355;SDS011;48747;50.250;18.848;2023-03-23T11:12:25;9.55;;;4.92;;
37355;SDS011;48747;50.250;18.848;2023-03-23T11:14:29;11.45;;;4.60;;
37355;SDS011;48747;50.250;18.848;2023-03-23T11:16:42;10.30;;;5.15;;
37355;SDS011;48747;50.250;18.848;2023-03-23T11:18:46;10.43;;;4.72;;
37355;SDS011;48747;50.250;18.848;2023-03-23T11:20:49;9.58;;;4.97;;
37355;SDS011;48747;50.250;18.848;2023-03-23T11:22:55;8.63;;;4.17;;
37355;SDS011;48747;50.250;18.848;2023-03-23T11:25:02;11.88;;;4.62;;
37355;SDS011;48747;50.250;18.848;2023-03-23T11:27:07;8.13;;;4.47;;
37355;SDS011;48747;50.250;18.848;2023-03-23T11:29:12;8.03;;;4.60;;
37355;SDS011;48747;50.250;18.848;2023-03-23T11:31:23;8.08;;;4.58;;
37355;SDS011;48747;50.250;18.848;2023-03-23T11:35:50;9.33;;;5.20;;
37355;SDS011;48747;50.250;18.848;2023-03-23T11:37:57;12.53;;;4.95;;
37355;SDS011;48747;50.250;18.848;2023-03-23T11:42:23;8.48;;;4.70;;
37355;SDS011;48747;50.250;18.848;2023-03-23T11:44:23;8.43;;;4.53;;
37355;SDS011;48747;50.250;18.848;2023-03-23T11:46:33;10.75;;;4.60;;
37355;SDS011;48747;50.250;18.848;2023-03-23T11:48:42;11.85;;;4.58;;
37355;SDS011;48747;50.250;18.848;2023-03-23T11:55:35;7.85;;;4.12;;
37355;SDS011;48747;50.250;18.848;2023-03-23T11:57:37;8.83;;;4.60;;
37355;SDS011;48747;50.250;18.848;2023-03-23T11:59:42;8.15;;;4.78;;
37355;SDS011;48747;50.250;18.848;2023-03-23T12:01:55;9.58;;;5.12;;
37355;SDS011;48747;50.250;18.848;2023-03-23T12:06:30;15.32;;;5.40;;
37355;SDS011;48747;50.250;18.848;2023-03-23T12:08:53;11.78;;;4.10;;
37355;SDS011;48747;50.250;18.848;2023-03-23T12:11:13;7.72;;;4.47;;
37355;SDS011;48747;50.250;18.848;2023-03-23T12:20:02;10.20;;;4.55;;
37355;SDS011;48747;50.250;18.848;2023-03-23T12:22:18;8.90;;;4.80;;
37355;SDS011;48747;50.250;18.848;2023-03-23T12:27:07;11.45;;;5.10;;
37355;SDS011;48747;50.250;18.848;2023-03-23T12:29:36;9.18;;;5.00;;
37355;SDS011;48747;50.250;18.848;2023-03-23T12:32:07;10.50;;;4.62;;
37355;SDS011;48747;50.250;18.848;2023-03-23T12:34:41;9.55;;;4.85;;
37355;SDS011;48747;50.250;18.848;2023-03-23T12:39:33;13.48;;;5.05;;
37355;SDS011;48747;50.250;18.848;2023-03-23T12:41:49;7.70;;;4.25;;
37355;SDS011;48747;50.250;18.848;2023-03-23T12:44:03;9.68;;;5.03;;
37355;SDS011;48747;50.250;18.848;2023-03-23T12:48:52;9.28;;;4.58;;
37355;SDS011;48747;50.250;18.848;2023-03-23T12:53:11;7.20;;;4.47;;
37355;SDS011;48747;50.250;18.848;2023-03-23T12:57:34;9.28;;;4.45;;
37355;SDS011;48747;50.250;18.848;2023-03-23T12:59:52;8.80;;;4.50;;
37355;SDS011;48747;50.250;18.848;2023-03-23T13:02:20;8.15;;;4.30;;
37355;SDS011;48747;50.250;18.848;2023-03-23T13:04:39;6.72;;;3.85;;
37355;SDS011;48747;50.250;18.848;2023-03-23T13:06:45;6.37;;;4.30;;
37355;SDS011;48747;50.250;18.848;2023-03-23T13:08:52;11.25;;;4.50;;
37355;SDS011;48747;50.250;18.848;2023-03-23T13:11:08;7.53;;;5.10;;
37355;SDS011;48747;50.250;18.848;2023-03-23T13:13:16;8.55;;;4.72;;
37355;SDS011;48747;50.250;18.848;2023-03-23T13:17:51;8.30;;;4.47;;
37355;SDS011;48747;50.250;18.848;2023-03-23T13:22:42;6.10;;;3.58;;
37355;SDS011;48747;50.250;18.848;2023-03-23T13:25:06;6.05;;;3.92;;
37355;SDS011;48747;50.250;18.848;2023-03-23T13:26:54;9.43;;;4.15;;
37355;SDS011;48747;50.250;18.848;2023-03-23T13:29:12;7.03;;;4.00;;
37355;SDS011;48747;50.250;18.848;2023-03-23T13:31:15;5.87;;;3.95;;
37355;SDS011;48747;50.250;18.848;2023-03-23T13:33:20;5.28;;;3.40;;
37355;SDS011;48747;50.250;18.848;2023-03-23T13:35:24;7.10;;;3.62;;
37355;SDS011;48747;50.250;18.848;2023-03-23T13:37:30;6.05;;;3.87;;
37355;SDS011;48747;50.250;18.848;2023-03-23T13:39:37;5.17;;;3.35;;
37355;SDS011;48747;50.250;18.848;2023-03-23T13:44:15;11.97;;;6.03;;
37355;SDS011;48747;50.250;18.848;2023-03-23T13:48:26;7.53;;;4.17;;
37355;SDS011;48747;50.250;18.848;2023-03-23T13:50:30;8.48;;;4.03;;
37355;SDS011;48747;50.250;18.848;2023-03-23T13:54:49;11.85;;;5.10;;
37355;SDS011;48747;50.250;18.848;2023-03-23T14:01:34;12.68;;;5.65;;
37355;SDS011;48747;50.250;18.848;2023-03-23T14:03:56;11.93;;;5.75;;
37355;SDS011;48747;50.250;18.848;2023-03-23T14:10:18;11.85;;;5.05;;
37355;SDS011;48747;50.250;18.848;2023-03-23T14:12:25;9.53;;;5.17;;
37355;SDS011;48747;50.250;18.848;2023-03-23T14:14:29;8.70;;;4.90;;
37355;SDS011;48747;50.250;18.848;2023-03-23T14:16:38;7.70;;;4.85;;
37355;SDS011;48747;50.250;18.848;2023-03-23T14:18:47;10.55;;;4.92;;
37355;SDS011;48747;50.250;18.848;2023-03-23T14:20:55;9.33;;;4.97;;
37355;SDS011;48747;50.250;18.848;2023-03-23T14:23:00;13.00;;;4.35;;
37355;SDS011;48747;50.250;18.848;2023-03-23T14:25:11;11.12;;;4.85;;
37355;SDS011;48747;50.250;18.848;2023-03-23T14:27:20;11.45;;;5.10;;
37355;SDS011;48747;50.250;18.848;2023-03-23T14:29:24;10.10;;;5.35;;
37355;SDS011;48747;50.250;18.848;2023-03-23T14:31:28;10.85;;;5.58;;
37355;SDS011;48747;50.250;18.848;2023-03-23T14:33:31;12.10;;;5.35;;
37355;SDS011;48747;50.250;18.848;2023-03-23T14:35:35;9.88;;;5.83;;